sensor_id;sensor_type;location;lat;lon;timestamp;pressure;altitude;pressure_sealevel;temperature;humidity
35507;BME280;36461;52.018;21.036;2024-03-22T00:02:19;100401.09;;;8.80;85.02
35507;BME280;36461;52.018;21.036;2024-03-22T00:04:46;100401.92;;;8.81;84.93
35507;BME280;36461;52.018;21.036;2024-03-22T00:07:14;100401.91;;;8.81;85.17
35507;BME280;36461;52.018;21.036;2024-03-22T00:09:42;100395.31;;;8.83;85.35
35507;BME280;36461;52.018;21.036;2024-03-22T00:12:10;100394.05;;;8.85;85.51
35507;BME280;36461;52.018;21.036;2024-03-22T00:14:38;100391.20;;;8.89;85.50
35507;BME280;36461;52.018;21.036;2024-03-22T00:17:06;100391.98;;;8.91;85.62
35507;BME280;36461;52.018;21.036;2024-03-22T00:19:34;100388.88;;;8.92;85.66
35507;BME280;36461;52.018;21.036;2024-03-22T00:22:03;100386.80;;;8.92;85.63
35507;BME280;36461;52.018;21.036;2024-03-22T00:24:30;100381.44;;;8.93;85.89
35507;BME280;36461;52.018;21.036;2024-03-22T00:26:58;100379.77;;;8.97;86.00
35507;BME280;36461;52.018;21.036;2024-03-22T00:29:26;100383.16;;;9.00;85.85
35507;BME280;36461;52.018;21.036;2024-03-22T00:31:54;100383.30;;;9.01;85.81
35507;BME280;36461;52.018;21.036;2024-03-22T00:34:22;100375.02;;;9.01;86.05
35507;BME280;36461;52.018;21.036;2024-03-22T00:36:50;100379.15;;;9.01;86.02
35507;BME280;36461;52.018;21.036;2024-03-22T00:39:19;100373.85;;;9.00;86.14
35507;BME280;36461;52.018;21.036;2024-03-22T00:41:46;100372.08;;;9.01;86.44
35507;BME280;36461;52.018;21.036;2024-03-22T00:44:14;100369.60;;;9.03;86.57
35507;BME280;36461;52.018;21.036;2024-03-22T00:46:42;100369.26;;;9.03;86.69
35507;BME280;36461;52.018;21.036;2024-03-22T00:49:10;100366.31;;;9.04;86.84
35507;BME280;36461;52.018;21.036;2024-03-22T00:51:38;100365.10;;;9.03;86.60
35507;BME280;36461;52.018;21.036;2024-03-22T00:54:06;100365.78;;;9.04;86.75
35507;BME280;36461;52.018;21.036;2024-03-22T00:56:33;100362.80;;;9.06;86.84
35507;BME280;36461;52.018;21.036;2024-03-22T00:59:02;100364.01;;;9.06;87.04
35507;BME280;36461;52.018;21.036;2024-03-22T01:01:30;100366.42;;;9.06;86.96
35507;BME280;36461;52.018;21.036;2024-03-22T01:03:57;100364.84;;;9.07;87.00
35507;BME280;36461;52.018;21.036;2024-03-22T01:06:25;100367.09;;;9.07;87.11
35507;BME280;36461;52.018;21.036;2024-03-22T01:08:54;100368.83;;;9.06;87.29
35507;BME280;36461;52.018;21.036;2024-03-22T01:11:22;100367.60;;;9.07;87.32
35507;BME280;36461;52.018;21.036;2024-03-22T01:13:50;100370.72;;;9.06;87.42
35507;BME280;36461;52.018;21.036;2024-03-22T01:16:18;100371.54;;;9.09;87.62
35507;BME280;36461;52.018;21.036;2024-03-22T01:18:46;100364.79;;;9.10;87.73
35507;BME280;36461;52.018;21.036;2024-03-22T01:21:13;100359.75;;;9.10;87.67
35507;BME280;36461;52.018;21.036;2024-03-22T01:23:41;100355.02;;;9.13;87.66
35507;BME280;36461;52.018;21.036;2024-03-22T01:26:09;100357.81;;;9.11;87.69
35507;BME280;36461;52.018;21.036;2024-03-22T01:28:37;100355.05;;;9.12;88.00
35507;BME280;36461;52.018;21.036;2024-03-22T01:31:05;100352.08;;;9.13;87.87
35507;BME280;36461;52.018;21.036;2024-03-22T01:33:33;100346.17;;;9.14;87.94
35507;BME280;36461;52.018;21.036;2024-03-22T01:36:01;100345.49;;;9.14;88.05
35507;BME280;36461;52.018;21.036;2024-03-22T01:38:28;100347.55;;;9.14;87.97
35507;BME280;36461;52.018;21.036;2024-03-22T01:40:56;100344.59;;;9.15;88.18
35507;BME280;36461;52.018;21.036;2024-03-22T01:52:33;100345.42;;;9.17;88.40
35507;BME280;36461;52.018;21.036;2024-03-22T01:55:02;100342.13;;;9.17;88.48
35507;BME280;36461;52.018;21.036;2024-03-22T01:57:34;100342.09;;;9.19;88.65
35507;BME280;36461;52.018;21.036;2024-03-22T02:00:02;100340.85;;;9.20;88.63
35507;BME280;36461;52.018;21.036;2024-03-22T02:02:40;100339.95;;;9.20;88.83
35507;BME280;36461;52.018;21.036;2024-03-22T02:05:15;100339.64;;;9.20;88.75
35507;BME280;36461;52.018;21.036;2024-03-22T02:07:47;100337.70;;;9.21;89.08
35507;BME280;36461;52.018;21.036;2024-03-22T02:10:16;100335.20;;;9.24;89.18
35507;BME280;36461;52.018;21.036;2024-03-22T02:12:44;100334.11;;;9.27;89.28
35507;BME280;36461;52.018;21.036;2024-03-22T02:15:12;100333.38;;;9.28;89.30
35507;BME280;36461;52.018;21.036;2024-03-22T02:17:40;100333.98;;;9.31;89.38
35507;BME280;36461;52.018;21.036;2024-03-22T02:20:08;100325.94;;;9.34;89.80
35507;BME280;36461;52.018;21.036;2024-03-22T02:22:38;100327.19;;;9.40;90.06
35507;BME280;36461;52.018;21.036;2024-03-22T02:25:06;100324.47;;;9.44;90.29
35507;BME280;36461;52.018;21.036;2024-03-22T02:27:37;100324.72;;;9.47;90.67
35507;BME280;36461;52.018;21.036;2024-03-22T02:30:06;100325.48;;;9.50;90.84
35507;BME280;36461;52.018;21.036;2024-03-22T02:32:34;100327.52;;;9.51;90.90
35507;BME280;36461;52.018;21.036;2024-03-22T02:35:02;100325.02;;;9.55;91.29
35507;BME280;36461;52.018;21.036;2024-03-22T02:37:30;100324.54;;;9.60;91.29
35507;BME280;36461;52.018;21.036;2024-03-22T02:39:59;100324.27;;;9.63;91.59
35507;BME280;36461;52.018;21.036;2024-03-22T02:42:27;100326.79;;;9.65;91.59
35507;BME280;36461;52.018;21.036;2024-03-22T02:44:56;100329.68;;;9.67;91.56
35507;BME280;36461;52.018;21.036;2024-03-22T02:47:24;100325.98;;;9.69;91.64
35507;BME280;36461;52.018;21.036;2024-03-22T02:49:52;100324.57;;;9.70;91.79
35507;BME280;36461;52.018;21.036;2024-03-22T02:52:20;100322.61;;;9.72;91.72
35507;BME280;36461;52.018;21.036;2024-03-22T02:54:48;100319.63;;;9.73;91.61
35507;BME280;36461;52.018;21.036;2024-03-22T02:57:16;100320.10;;;9.75;91.70
35507;BME280;36461;52.018;21.036;2024-03-22T02:59:45;100319.39;;;9.76;91.54
35507;BME280;36461;52.018;21.036;2024-03-22T03:02:13;100316.27;;;9.76;91.98
35507;BME280;36461;52.018;21.036;2024-03-22T03:04:41;100318.11;;;9.78;91.87
35507;BME280;36461;52.018;21.036;2024-03-22T03:07:10;100318.05;;;9.81;91.79
35507;BME280;36461;52.018;21.036;2024-03-22T03:09:38;100317.47;;;9.82;91.81
35507;BME280;36461;52.018;21.036;2024-03-22T03:12:07;100317.10;;;9.83;91.89
35507;BME280;36461;52.018;21.036;2024-03-22T03:14:37;100320.33;;;9.85;91.98
35507;BME280;36461;52.018;21.036;2024-03-22T03:17:06;100323.64;;;9.84;91.87
35507;BME280;36461;52.018;21.036;2024-03-22T03:19:34;100323.11;;;9.84;91.72
35507;BME280;36461;52.018;21.036;2024-03-22T03:22:02;100322.73;;;9.86;91.93
35507;BME280;36461;52.018;21.036;2024-03-22T03:24:30;100321.65;;;9.87;92.25
35507;BME280;36461;52.018;21.036;2024-03-22T03:26:58;100317.30;;;9.88;92.18
35507;BME280;36461;52.018;21.036;2024-03-22T03:29:27;100318.52;;;9.88;92.12
35507;BME280;36461;52.018;21.036;2024-03-22T03:31:55;100316.50;;;9.86;92.08
35507;BME280;36461;52.018;21.036;2024-03-22T03:34:22;100321.57;;;9.84;92.21
35507;BME280;36461;52.018;21.036;2024-03-22T03:36:50;100319.87;;;9.83;92.33
35507;BME280;36461;52.018;21.036;2024-03-22T03:39:19;100318.48;;;9.84;92.59
35507;BME280;36461;52.018;21.036;2024-03-22T03:41:47;100312.55;;;9.85;92.52
35507;BME280;36461;52.018;21.036;2024-03-22T03:44:17;100312.66;;;9.87;92.70
35507;BME280;36461;52.018;21.036;2024-03-22T03:46:46;100308.31;;;9.88;92.74
35507;BME280;36461;52.018;21.036;2024-03-22T03:49:14;100306.17;;;9.90;92.60
35507;BME280;36461;52.018;21.036;2024-03-22T03:51:43;100303.75;;;9.90;92.51
35507;BME280;36461;52.018;21.036;2024-03-22T03:54:15;100309.70;;;9.93;92.72
35507;BME280;36461;52.018;21.036;2024-03-22T03:56:46;100311.75;;;9.94;92.73
35507;BME280;36461;52.018;21.036;2024-03-22T03:59:17;100308.17;;;9.93;92.57
35507;BME280;36461;52.018;21.036;2024-03-22T04:01:48;100308.52;;;9.93;92.62
35507;BME280;36461;52.018;21.036;2024-03-22T04:04:19;100302.81;;;9.93;92.72
35507;BME280;36461;52.018;21.036;2024-03-22T04:06:50;100306.98;;;9.92;92.65
35507;BME280;36461;52.018;21.036;2024-03-22T04:09:21;100303.42;;;9.90;92.76
35507;BME280;36461;52.018;21.036;2024-03-22T04:11:51;100308.80;;;9.89;92.72
35507;BME280;36461;52.018;21.036;2024-03-22T04:14:23;100312.60;;;9.89;92.86
35507;BME280;36461;52.018;21.036;2024-03-22T04:16:55;100316.46;;;9.93;93.44
35507;BME280;36461;52.018;21.036;2024-03-22T04:19:25;100317.41;;;9.96;93.56
35507;BME280;36461;52.018;21.036;2024-03-22T04:21:56;100328.38;;;9.93;93.56
35507;BME280;36461;52.018;21.036;2024-03-22T04:24:27;100331.19;;;9.86;93.51
35507;BME280;36461;52.018;21.036;2024-03-22T04:27:00;100332.42;;;9.80;93.18
35507;BME280;36461;52.018;21.036;2024-03-22T04:29:32;100334.04;;;9.71;93.10
35507;BME280;36461;52.018;21.036;2024-03-22T04:32:04;100336.50;;;9.64;93.19
35507;BME280;36461;52.018;21.036;2024-03-22T04:34:36;100343.16;;;9.54;93.17
35507;BME280;36461;52.018;21.036;2024-03-22T04:37:06;100340.69;;;9.38;93.31
35507;BME280;36461;52.018;21.036;2024-03-22T04:39:37;100338.24;;;9.27;93.66
35507;BME280;36461;52.018;21.036;2024-03-22T04:42:08;100341.02;;;9.20;94.04
35507;BME280;36461;52.018;21.036;2024-03-22T04:44:38;100345.05;;;9.11;94.57
35507;BME280;36461;52.018;21.036;2024-03-22T04:47:11;100349.44;;;9.02;94.94
35507;BME280;36461;52.018;21.036;2024-03-22T04:49:42;100349.19;;;8.98;95.35
35507;BME280;36461;52.018;21.036;2024-03-22T04:59:47;100363.78;;;8.81;96.21
35507;BME280;36461;52.018;21.036;2024-03-22T05:02:15;100366.21;;;8.74;96.12
35507;BME280;36461;52.018;21.036;2024-03-22T05:04:43;100367.48;;;8.71;96.58
35507;BME280;36461;52.018;21.036;2024-03-22T05:07:11;100368.65;;;8.66;96.49
35507;BME280;36461;52.018;21.036;2024-03-22T05:09:40;100373.82;;;8.59;96.60
35507;BME280;36461;52.018;21.036;2024-03-22T05:19:42;100380.25;;;8.48;97.00
35507;BME280;36461;52.018;21.036;2024-03-22T05:22:10;100385.70;;;8.43;97.06
35507;BME280;36461;52.018;21.036;2024-03-22T05:24:38;100384.77;;;8.39;96.56
35507;BME280;36461;52.018;21.036;2024-03-22T05:27:06;100387.04;;;8.38;96.60
35507;BME280;36461;52.018;21.036;2024-03-22T05:29:34;100393.36;;;8.40;96.90
35507;BME280;36461;52.018;21.036;2024-03-22T05:32:02;100393.45;;;8.44;97.08
35507;BME280;36461;52.018;21.036;2024-03-22T05:34:31;100389.44;;;8.47;97.03
35507;BME280;36461;52.018;21.036;2024-03-22T05:36:59;100393.60;;;8.46;96.45
35507;BME280;36461;52.018;21.036;2024-03-22T05:39:28;100393.64;;;8.43;96.17
35507;BME280;36461;52.018;21.036;2024-03-22T05:41:56;100391.10;;;8.42;96.32
35507;BME280;36461;52.018;21.036;2024-03-22T05:44:24;100389.87;;;8.42;96.10
35507;BME280;36461;52.018;21.036;2024-03-22T05:46:52;100393.57;;;8.39;96.04
35507;BME280;36461;52.018;21.036;2024-03-22T05:49:20;100389.92;;;8.40;96.22
35507;BME280;36461;52.018;21.036;2024-03-22T05:51:49;100389.10;;;8.47;96.58
35507;BME280;36461;52.018;21.036;2024-03-22T05:54:17;100392.27;;;8.52;96.37
35507;BME280;36461;52.018;21.036;2024-03-22T05:56:45;100393.47;;;8.52;95.90
35507;BME280;36461;52.018;21.036;2024-03-22T05:59:13;100394.65;;;8.53;95.87
35507;BME280;36461;52.018;21.036;2024-03-22T06:01:41;100389.27;;;8.54;95.87
35507;BME280;36461;52.018;21.036;2024-03-22T06:04:09;100390.10;;;8.56;95.56
35507;BME280;36461;52.018;21.036;2024-03-22T06:06:37;100391.01;;;8.54;95.08
35507;BME280;36461;52.018;21.036;2024-03-22T06:09:06;100388.38;;;8.55;95.39
35507;BME280;36461;52.018;21.036;2024-03-22T06:11:39;100389.00;;;8.58;95.33
35507;BME280;36461;52.018;21.036;2024-03-22T06:14:11;100390.99;;;8.62;95.11
35507;BME280;36461;52.018;21.036;2024-03-22T06:16:39;100391.86;;;8.62;94.98
35507;BME280;36461;52.018;21.036;2024-03-22T06:19:07;100388.12;;;8.66;94.82
35507;BME280;36461;52.018;21.036;2024-03-22T06:21:35;100384.40;;;8.70;95.06
35507;BME280;36461;52.018;21.036;2024-03-22T06:24:04;100385.65;;;8.76;94.98
35507;BME280;36461;52.018;21.036;2024-03-22T06:26:32;100381.93;;;8.80;94.89
35507;BME280;36461;52.018;21.036;2024-03-22T06:29:08;100377.95;;;8.86;94.76
35507;BME280;36461;52.018;21.036;2024-03-22T06:31:36;100372.15;;;8.98;94.78
35507;BME280;36461;52.018;21.036;2024-03-22T06:34:04;100374.04;;;9.12;94.77
35507;BME280;36461;52.018;21.036;2024-03-22T06:36:32;100374.30;;;9.34;95.15
35507;BME280;36461;52.018;21.036;2024-03-22T06:39:00;100374.93;;;9.49;94.15
35507;BME280;36461;52.018;21.036;2024-03-22T06:41:28;100377.86;;;9.56;93.69
35507;BME280;36461;52.018;21.036;2024-03-22T06:43:56;100375.77;;;9.63;93.03
35507;BME280;36461;52.018;21.036;2024-03-22T06:46:24;100377.49;;;9.69;93.25
35507;BME280;36461;52.018;21.036;2024-03-22T06:48:52;100381.27;;;9.76;92.94
35507;BME280;36461;52.018;21.036;2024-03-22T06:51:21;100380.33;;;9.72;92.40
35507;BME280;36461;52.018;21.036;2024-03-22T06:53:49;100381.85;;;9.67;92.01
35507;BME280;36461;52.018;21.036;2024-03-22T06:56:20;100382.08;;;9.65;91.63
35507;BME280;36461;52.018;21.036;2024-03-22T06:58:48;100382.14;;;9.69;91.44
35507;BME280;36461;52.018;21.036;2024-03-22T07:01:16;100388.70;;;9.70;91.09
35507;BME280;36461;52.018;21.036;2024-03-22T07:03:44;100388.17;;;9.70;91.08
35507;BME280;36461;52.018;21.036;2024-03-22T07:06:14;100387.70;;;9.74;91.29
35507;BME280;36461;52.018;21.036;2024-03-22T07:08:42;100392.48;;;9.76;91.09
35507;BME280;36461;52.018;21.036;2024-03-22T07:11:11;100392.21;;;9.80;91.02
35507;BME280;36461;52.018;21.036;2024-03-22T07:13:39;100394.27;;;9.80;90.42
35507;BME280;36461;52.018;21.036;2024-03-22T07:16:07;100391.23;;;9.78;90.43
35507;BME280;36461;52.018;21.036;2024-03-22T07:18:35;100388.57;;;9.74;90.42
35507;BME280;36461;52.018;21.036;2024-03-22T07:21:04;100389.02;;;9.70;90.03
35507;BME280;36461;52.018;21.036;2024-03-22T07:23:33;100390.20;;;9.72;90.37
35507;BME280;36461;52.018;21.036;2024-03-22T07:26:01;100388.02;;;9.76;90.51
35507;BME280;36461;52.018;21.036;2024-03-22T07:28:30;100385.41;;;9.82;90.56
35507;BME280;36461;52.018;21.036;2024-03-22T07:30:58;100383.83;;;9.95;90.51
35507;BME280;36461;52.018;21.036;2024-03-22T07:33:26;100388.52;;;10.00;90.05
35507;BME280;36461;52.018;21.036;2024-03-22T07:35:56;100384.69;;;9.95;89.07
35507;BME280;36461;52.018;21.036;2024-03-22T07:38:24;100386.39;;;9.90;89.15
35507;BME280;36461;52.018;21.036;2024-03-22T07:40:52;100388.42;;;9.85;89.21
35507;BME280;36461;52.018;21.036;2024-03-22T07:43:20;100385.64;;;9.80;88.93
35507;BME280;36461;52.018;21.036;2024-03-22T07:45:48;100386.65;;;9.80;89.08
35507;BME280;36461;52.018;21.036;2024-03-22T07:48:17;100390.98;;;9.81;88.63
35507;BME280;36461;52.018;21.036;2024-03-22T07:50:44;100388.91;;;9.80;88.80
35507;BME280;36461;52.018;21.036;2024-03-22T07:53:12;100387.48;;;9.82;88.53
35507;BME280;36461;52.018;21.036;2024-03-22T07:55:41;100386.26;;;9.89;88.69
35507;BME280;36461;52.018;21.036;2024-03-22T07:58:10;100383.61;;;10.02;88.84
35507;BME280;36461;52.018;21.036;2024-03-22T08:00:38;100386.48;;;10.05;87.93
35507;BME280;36461;52.018;21.036;2024-03-22T08:03:06;100382.13;;;10.05;87.74
35507;BME280;36461;52.018;21.036;2024-03-22T08:05:34;100383.05;;;10.09;87.71
35507;BME280;36461;52.018;21.036;2024-03-22T08:08:02;100378.63;;;10.13;87.89
35507;BME280;36461;52.018;21.036;2024-03-22T08:10:31;100376.90;;;10.18;87.69
35507;BME280;36461;52.018;21.036;2024-03-22T08:12:59;100373.63;;;10.23;87.58
35507;BME280;36461;52.018;21.036;2024-03-22T08:15:28;100371.00;;;10.24;87.08
35507;BME280;36461;52.018;21.036;2024-03-22T08:17:57;100369.79;;;10.30;87.09
35507;BME280;36461;52.018;21.036;2024-03-22T08:20:28;100369.31;;;10.41;86.94
35507;BME280;36461;52.018;21.036;2024-03-22T08:22:56;100371.59;;;10.51;86.60
35507;BME280;36461;52.018;21.036;2024-03-22T08:25:24;100371.33;;;10.65;86.65
35507;BME280;36461;52.018;21.036;2024-03-22T08:27:53;100369.90;;;10.71;86.31
35507;BME280;36461;52.018;21.036;2024-03-22T08:30:32;100371.08;;;10.67;85.83
35507;BME280;36461;52.018;21.036;2024-03-22T08:33:01;100368.04;;;10.70;86.05
35507;BME280;36461;52.018;21.036;2024-03-22T08:35:29;100366.77;;;10.77;85.80
35507;BME280;36461;52.018;21.036;2024-03-22T08:37:58;100368.48;;;10.82;85.43
35507;BME280;36461;52.018;21.036;2024-03-22T08:40:27;100367.77;;;10.88;85.48
35507;BME280;36461;52.018;21.036;2024-03-22T08:42:55;100368.77;;;10.95;85.04
35507;BME280;36461;52.018;21.036;2024-03-22T08:45:24;100366.35;;;11.00;84.88
35507;BME280;36461;52.018;21.036;2024-03-22T08:47:52;100369.29;;;11.10;84.60
35507;BME280;36461;52.018;21.036;2024-03-22T08:50:21;100370.92;;;11.23;83.87
35507;BME280;36461;52.018;21.036;2024-03-22T08:52:49;100366.48;;;11.31;83.91
35507;BME280;36461;52.018;21.036;2024-03-22T08:55:18;100363.98;;;11.37;83.88
35507;BME280;36461;52.018;21.036;2024-03-22T08:57:46;100367.20;;;11.35;83.52
35507;BME280;36461;52.018;21.036;2024-03-22T09:00:24;100367.35;;;11.26;82.67
35507;BME280;36461;52.018;21.036;2024-03-22T09:02:53;100366.20;;;11.19;82.56
35507;BME280;36461;52.018;21.036;2024-03-22T09:05:21;100364.20;;;11.17;82.52
35507;BME280;36461;52.018;21.036;2024-03-22T09:07:49;100358.91;;;11.14;82.26
35507;BME280;36461;52.018;21.036;2024-03-22T09:10:18;100353.43;;;11.08;81.95
35507;BME280;36461;52.018;21.036;2024-03-22T09:12:46;100357.56;;;11.03;82.11
35507;BME280;36461;52.018;21.036;2024-03-22T09:15:14;100363.45;;;11.03;82.28
35507;BME280;36461;52.018;21.036;2024-03-22T09:17:42;100361.35;;;11.09;82.58
35507;BME280;36461;52.018;21.036;2024-03-22T09:20:11;100359.61;;;11.14;82.38
35507;BME280;36461;52.018;21.036;2024-03-22T09:22:40;100359.26;;;11.19;82.42
35507;BME280;36461;52.018;21.036;2024-03-22T09:25:08;100355.71;;;11.22;82.06
35507;BME280;36461;52.018;21.036;2024-03-22T09:27:36;100354.59;;;11.29;82.07
35507;BME280;36461;52.018;21.036;2024-03-22T09:30:05;100353.90;;;11.33;82.15
35507;BME280;36461;52.018;21.036;2024-03-22T09:32:33;100356.84;;;11.34;82.16
35507;BME280;36461;52.018;21.036;2024-03-22T09:35:01;100356.26;;;11.26;81.58
35507;BME280;36461;52.018;21.036;2024-03-22T09:37:29;100355.71;;;11.12;81.28
35507;BME280;36461;52.018;21.036;2024-03-22T09:39:57;100356.06;;;11.01;81.25
35507;BME280;36461;52.018;21.036;2024-03-22T09:42:28;100353.15;;;10.96;81.77
35507;BME280;36461;52.018;21.036;2024-03-22T09:45:00;100344.45;;;10.91;82.03
35507;BME280;36461;52.018;21.036;2024-03-22T09:47:30;100345.48;;;10.92;82.13
35507;BME280;36461;52.018;21.036;2024-03-22T09:49:59;100343.94;;;10.86;81.89
35507;BME280;36461;52.018;21.036;2024-03-22T09:52:28;100343.67;;;10.84;82.24
35507;BME280;36461;52.018;21.036;2024-03-22T09:54:59;100341.89;;;10.81;82.48
35507;BME280;36461;52.018;21.036;2024-03-22T09:57:27;100341.39;;;10.80;82.50
35507;BME280;36461;52.018;21.036;2024-03-22T09:59:56;100339.63;;;10.81;82.74
35507;BME280;36461;52.018;21.036;2024-03-22T10:02:25;100336.25;;;10.88;82.75
35507;BME280;36461;52.018;21.036;2024-03-22T10:04:56;100333.77;;;10.95;83.00
35507;BME280;36461;52.018;21.036;2024-03-22T10:07:25;100333.75;;;11.06;83.12
35507;BME280;36461;52.018;21.036;2024-03-22T10:09:53;100330.81;;;11.11;82.94
35507;BME280;36461;52.018;21.036;2024-03-22T10:12:25;100325.92;;;11.12;82.99
35507;BME280;36461;52.018;21.036;2024-03-22T10:14:53;100326.45;;;11.16;82.80
35507;BME280;36461;52.018;21.036;2024-03-22T10:17:21;100325.73;;;11.17;82.66
35507;BME280;36461;52.018;21.036;2024-03-22T10:19:49;100319.83;;;11.13;82.07
35507;BME280;36461;52.018;21.036;2024-03-22T10:22:19;100321.73;;;11.02;82.38
35507;BME280;36461;52.018;21.036;2024-03-22T10:24:47;100322.60;;;10.98;82.41
35507;BME280;36461;52.018;21.036;2024-03-22T10:27:15;100317.42;;;10.93;82.27
35507;BME280;36461;52.018;21.036;2024-03-22T10:29:44;100313.21;;;10.94;82.73
35507;BME280;36461;52.018;21.036;2024-03-22T10:32:16;100312.70;;;10.94;82.59
35507;BME280;36461;52.018;21.036;2024-03-22T10:34:45;100306.60;;;10.90;82.30
35507;BME280;36461;52.018;21.036;2024-03-22T10:37:15;100304.55;;;10.94;82.30
35507;BME280;36461;52.018;21.036;2024-03-22T10:39:43;100298.25;;;10.96;82.27
35507;BME280;36461;52.018;21.036;2024-03-22T10:42:14;100297.73;;;11.05;82.15
35507;BME280;36461;52.018;21.036;2024-03-22T10:44:44;100299.16;;;11.10;81.74
35507;BME280;36461;52.018;21.036;2024-03-22T10:47:13;100290.89;;;11.18;81.56
35507;BME280;36461;52.018;21.036;2024-03-22T10:49:43;100287.22;;;11.38;81.33
35507;BME280;36461;52.018;21.036;2024-03-22T10:52:17;100283.44;;;11.60;81.05
35507;BME280;36461;52.018;21.036;2024-03-22T10:54:47;100282.55;;;11.79;80.58
35507;BME280;36461;52.018;21.036;2024-03-22T10:57:16;100280.20;;;11.91;80.44
35507;BME280;36461;52.018;21.036;2024-03-22T10:59:46;100281.98;;;12.12;79.82
35507;BME280;36461;52.018;21.036;2024-03-22T11:02:17;100279.06;;;12.24;79.43
35507;BME280;36461;52.018;21.036;2024-03-22T11:04:54;100271.61;;;12.32;79.08
35507;BME280;36461;52.018;21.036;2024-03-22T11:07:22;100275.48;;;12.44;78.78
35507;BME280;36461;52.018;21.036;2024-03-22T11:09:56;100273.02;;;12.57;78.36
35507;BME280;36461;52.018;21.036;2024-03-22T11:12:25;100266.23;;;12.74;78.12
35507;BME280;36461;52.018;21.036;2024-03-22T11:14:53;100259.81;;;12.89;77.66
35507;BME280;36461;52.018;21.036;2024-03-22T11:17:23;100257.17;;;13.18;77.51
35507;BME280;36461;52.018;21.036;2024-03-22T11:19:53;100259.40;;;13.34;77.12
35507;BME280;36461;52.018;21.036;2024-03-22T11:22:21;100255.94;;;13.46;76.59
35507;BME280;36461;52.018;21.036;2024-03-22T11:24:49;100256.90;;;13.47;75.95
35507;BME280;36461;52.018;21.036;2024-03-22T11:27:18;100252.37;;;13.28;74.36
35507;BME280;36461;52.018;21.036;2024-03-22T11:29:46;100248.50;;;13.02;74.66
35507;BME280;36461;52.018;21.036;2024-03-22T11:32:15;100245.13;;;13.00;74.93
35507;BME280;36461;52.018;21.036;2024-03-22T11:34:43;100238.30;;;13.01;74.98
35507;BME280;36461;52.018;21.036;2024-03-22T11:37:14;100239.27;;;12.95;75.07
35507;BME280;36461;52.018;21.036;2024-03-22T11:39:42;100239.27;;;12.91;75.08
35507;BME280;36461;52.018;21.036;2024-03-22T11:42:10;100240.86;;;12.82;74.60
35507;BME280;36461;52.018;21.036;2024-03-22T11:44:39;100236.86;;;12.70;73.94
35507;BME280;36461;52.018;21.036;2024-03-22T11:47:08;100239.54;;;12.61;73.59
35507;BME280;36461;52.018;21.036;2024-03-22T11:49:36;100238.77;;;12.50;73.67
35507;BME280;36461;52.018;21.036;2024-03-22T11:52:04;100234.05;;;12.51;73.51
35507;BME280;36461;52.018;21.036;2024-03-22T11:54:35;100232.86;;;12.62;73.42
35507;BME280;36461;52.018;21.036;2024-03-22T11:57:04;100228.80;;;12.80;73.75
35507;BME280;36461;52.018;21.036;2024-03-22T11:59:32;100225.67;;;13.00;73.62
35507;BME280;36461;52.018;21.036;2024-03-22T12:02:00;100220.59;;;13.16;73.32
35507;BME280;36461;52.018;21.036;2024-03-22T12:04:28;100221.43;;;13.28;72.42
35507;BME280;36461;52.018;21.036;2024-03-22T12:06:56;100219.98;;;13.34;72.05
35507;BME280;36461;52.018;21.036;2024-03-22T12:09:25;100222.73;;;13.42;71.74
35507;BME280;36461;52.018;21.036;2024-03-22T12:11:55;100222.73;;;13.46;71.38
35507;BME280;36461;52.018;21.036;2024-03-22T12:14:23;100223.17;;;13.44;71.24
35507;BME280;36461;52.018;21.036;2024-03-22T12:16:54;100218.59;;;13.45;71.17
35507;BME280;36461;52.018;21.036;2024-03-22T12:19:23;100216.73;;;13.52;71.15
35507;BME280;36461;52.018;21.036;2024-03-22T12:21:51;100214.50;;;13.55;70.56
35507;BME280;36461;52.018;21.036;2024-03-22T12:24:19;100213.33;;;13.54;70.49
35507;BME280;36461;52.018;21.036;2024-03-22T12:26:47;100213.70;;;13.50;70.17
35507;BME280;36461;52.018;21.036;2024-03-22T12:29:16;100213.47;;;13.39;69.82
35507;BME280;36461;52.018;21.036;2024-03-22T12:31:45;100209.19;;;13.26;70.06
35507;BME280;36461;52.018;21.036;2024-03-22T12:34:13;100210.85;;;13.24;70.01
35507;BME280;36461;52.018;21.036;2024-03-22T12:36:43;100202.52;;;13.24;70.04
35507;BME280;36461;52.018;21.036;2024-03-22T12:39:11;100199.95;;;13.26;69.81
35507;BME280;36461;52.018;21.036;2024-03-22T12:41:39;100189.74;;;13.30;69.70
35507;BME280;36461;52.018;21.036;2024-03-22T12:44:08;100190.87;;;13.28;69.50
35507;BME280;36461;52.018;21.036;2024-03-22T12:46:36;100185.85;;;13.31;69.63
35507;BME280;36461;52.018;21.036;2024-03-22T12:49:03;100185.51;;;13.27;69.63
35507;BME280;36461;52.018;21.036;2024-03-22T12:51:32;100169.20;;;13.23;69.54
35507;BME280;36461;52.018;21.036;2024-03-22T12:54:00;100166.05;;;13.23;69.32
35507;BME280;36461;52.018;21.036;2024-03-22T12:56:28;100158.63;;;13.15;69.14
35507;BME280;36461;52.018;21.036;2024-03-22T12:58:57;100154.16;;;13.13;69.28
35507;BME280;36461;52.018;21.036;2024-03-22T13:01:25;100151.46;;;13.20;69.31
35507;BME280;36461;52.018;21.036;2024-03-22T13:03:56;100151.39;;;13.21;68.89
35507;BME280;36461;52.018;21.036;2024-03-22T13:06:24;100155.23;;;13.28;68.93
35507;BME280;36461;52.018;21.036;2024-03-22T13:08:52;100155.05;;;13.36;68.72
35507;BME280;36461;52.018;21.036;2024-03-22T13:11:20;100151.59;;;13.39;69.00
35507;BME280;36461;52.018;21.036;2024-03-22T13:13:48;100145.98;;;13.44;69.13
35507;BME280;36461;52.018;21.036;2024-03-22T13:16:16;100139.38;;;13.41;68.51
35507;BME280;36461;52.018;21.036;2024-03-22T13:18:44;100138.42;;;13.35;68.65